KNQA/NQA METAR and TAF weather

Enter ICAO airport designator
Station Type Date Time Source
KNQA METAR 2021/05/10 02:15 UTC NOAA

KNQA 100215Z AUTO 01006KT 10SM OVC013 13/12 A2994 RMK A01


Station Type Date Time Source
KNQA Decoded METAR 2021/05/10 02:15 UTC NOAA

Millington, Millington Municipal Airport, TN, United States (KNQA) 35-21-24N 089-52-13W
May 09, 2021 - 10:15 PM EDT / 2021.05.10 0215 UTC
Wind: from the N (010 degrees) at 7 MPH (6 KT):0
Visibility: 10 mile(s):0
Sky conditions: overcast
Temperature: 55 F (13 C)
Dew Point: 53 F (12 C)
Relative Humidity: 93%
Pressure (altimeter): 29.94 in. Hg (1013 hPa)
ob: KNQA 100215Z AUTO 01006KT 10SM OVC013 13/12 A2994 RMK A01
cycle: 2

Station Type Date Time Source
KNQA TAF UTC NOAA

Error!

Example: see airport list